Time;durP1;ratioP1;P1;durP2;ratioP2;P2;SDS_P1;SDS_P2;PMS_P1;PMS_P2;Temp;Humidity;BMP_temperature;BMP_pressure;BME280_temperature;BME280_humidity;BME280_pressure;Samples;Min_cycle;Max_cycle;Signal;HPM_P1;HPM_P2
2024/01/17 00:01:49;;;;;;;;;;;;;;;;;;5055754;28;20257;-69
2024/01/17 00:04:16;;;;;;;;;;;;;;;;;;5055696;28;19920;-69
2024/01/17 00:06:42;;;;;;;;;;;;;;;;;;5055469;28;19923;-69
2024/01/17 00:09:09;;;;;;;;;;;;;;;;;;5055532;28;19988;-69
2024/01/17 00:11:35;;;;;;;;;;;;;;;;;;5055569;28;19916;-68
2024/01/17 00:14:01;;;;;;;;;;;;;;;;;;5055097;28;19909;-69
2024/01/17 00:16:27;;;;;;;;;;;;;;;;;;5055386;28;19916;-69
2024/01/17 00:18:52;;;;;;;;;;;;;;;;;;5055373;28;19909;-69
2024/01/17 00:21:18;;;;;;;;;;;;;;;;;;5054986;28;19909;-69
2024/01/17 00:23:44;;;;;;;;;;;;;;;;;;5055209;28;19913;-69
2024/01/17 00:26:11;;;;;;;;;;;;;;;;;;5055100;28;20430;-69
2024/01/17 00:28:36;;;;;;;;;;;;;;;;;;5054645;28;19915;-69
2024/01/17 00:31:02;;;;;;;;;;;;;;;;;;5055668;28;20349;-69
2024/01/17 00:33:28;;;;;;;;;;;;;;;;;;5054119;28;20010;-69
2024/01/17 00:35:54;;;;;;;;;;;;;;;;;;5054584;28;19912;-69
2024/01/17 00:38:20;;;;;;;;;;;;;;;;;;5054934;28;19913;-69
2024/01/17 00:40:46;;;;;;;;;;;;;;;;;;5053234;28;19909;-69
2024/01/17 00:43:12;;;;;;;;;;;;;;;;;;5053954;28;19909;-69
2024/01/17 00:45:39;;;;;;;;;;;;;;;;;;5054739;28;19952;-69
2024/01/17 00:48:05;;;;;;;;;;;;;;;;;;5054770;28;20384;-69
2024/01/17 00:50:31;;;;;;;;;;;;;;;;;;5054774;28;20012;-69
2024/01/17 00:52:57;;;;;;;;;;;;;;;;;;5054992;28;19912;-68
2024/01/17 00:55:23;;;;;;;;;;;;;;;;;;5054316;28;19924;-69
2024/01/17 00:57:49;;;;;;;;;;;;;;;;;;5053395;28;19913;-69
2024/01/17 01:00:15;;;;;;;;;;;;;;;;;;5053246;28;19909;-69
2024/01/17 01:02:43;;;;;;;;;;;;;;;;;;5054080;28;19909;-69
2024/01/17 01:05:08;;;;;;;;;;;;;;;;;;5053090;28;19916;-69
2024/01/17 01:07:34;;;;;;;;;;;;;;;;;;5054571;28;19920;-69
2024/01/17 01:10:00;;;;;;;;;;;;;;;;;;5054029;28;19915;-69
2024/01/17 01:12:26;;;;;;;;;;;;;;;;;;5054268;28;19908;-69
2024/01/17 01:14:52;;;;;;;;;;;;;;;;;;5054285;28;19913;-68
2024/01/17 01:17:18;;;;;;;;;;;;;;;;;;5053833;28;19924;-69
2024/01/17 01:19:45;;;;;;;;;;;;;;;;;;5054190;28;19935;-68
2024/01/17 01:22:11;;;;;;;;;;;;;;;;;;5052879;28;19912;-69
2024/01/17 01:24:37;;;;;;;;;;;;;;;;;;5053750;28;19944;-69
2024/01/17 01:27:03;;;;;;;;;;;;;;;;;;5054081;28;19955;-69
2024/01/17 01:29:29;;;;;;;;;;;;;;;;;;5054028;28;19908;-69
2024/01/17 01:31:55;;;;;;;;;;;;;;;;;;5053623;28;20284;-69
2024/01/17 01:34:21;;;;;;;;;;;;;;;;;;5052697;28;20297;-69
2024/01/17 01:36:47;;;;;;;;;;;;;;;;;;5052697;28;19924;-69
2024/01/17 01:39:14;;;;;;;;;;;;;;;;;;5053593;28;19909;-69
2024/01/17 01:41:40;;;;;;;;;;;;;;;;;;5053944;28;19909;-70
2024/01/17 01:44:06;;;;;;;;;;;;;;;;;;5053851;28;20418;-69
2024/01/17 01:46:32;;;;;;;;;;;;;;;;;;5053765;28;20273;-69
2024/01/17 01:48:58;;;;;;;;;;;;;;;;;;5052552;28;19909;-69
2024/01/17 01:51:24;;;;;;;;;;;;;;;;;;5053444;28;20345;-69
2024/01/17 01:53:50;;;;;;;;;;;;;;;;;;5052265;28;19991;-70
2024/01/17 01:56:16;;;;;;;;;;;;;;;;;;5053605;28;20369;-69
2024/01/17 01:58:43;;;;;;;;;;;;;;;;;;5053334;28;20024;-69
2024/01/17 02:01:09;;;;;;;;;;;;;;;;;;5053663;28;19979;-69
2024/01/17 02:03:35;;;;;;;;;;;;;;;;;;5053695;28;20361;-69
2024/01/17 02:06:01;;;;;;;;;;;;;;;;;;5053140;28;20307;-68
2024/01/17 02:08:27;;;;;;;;;;;;;;;;;;5052322;28;20267;-69
2024/01/17 02:10:53;;;;;;;;;;;;;;;;;;5053765;28;19963;-69
2024/01/17 02:13:19;;;;;;;;;;;;;;;;;;5053316;28;19909;-69
2024/01/17 02:15:44;;;;;;;;;;;;;;;;;;5053626;28;20283;-69
2024/01/17 02:18:10;;;;;;;;;;;;;;;;;;5052239;28;19909;-69
2024/01/17 02:20:36;;;;;;;;;;;;;;;;;;5053255;28;20349;-68
2024/01/17 02:23:02;;;;;;;;;;;;;;;;;;5053844;28;20373;-68
2024/01/17 02:25:28;;;;;;;;;;;;;;;;;;5053375;28;20281;-68
2024/01/17 02:27:54;;;;;;;;;;;;;;;;;;5053295;28;19912;-68
2024/01/17 02:30:20;;;;;;;;;;;;;;;;;;5053376;28;19909;-68
2024/01/17 02:32:48;;;;;;;;;;;;;;;;;;5053360;28;19955;-68
2024/01/17 02:35:14;;;;;;;;;;;;;;;;;;5053072;28;20303;-68
2024/01/17 02:37:40;;;;;;;;;;;;;;;;;;5053747;28;19944;-68
2024/01/17 02:40:06;;;;;;;;;;;;;;;;;;5052327;28;19909;-68
2024/01/17 02:42:32;;;;;;;;;;;;;;;;;;5052861;28;19912;-69
2024/01/17 02:44:58;;;;;;;;;;;;;;;;;;5053321;28;19915;-68
2024/01/17 02:47:24;;;;;;;;;;;;;;;;;;5052894;28;19921;-68
2024/01/17 02:49:50;;;;;;;;;;;;;;;;;;5053220;28;19947;-68
2024/01/17 02:52:16;;;;;;;;;;;;;;;;;;5053182;28;19916;-68
2024/01/17 02:54:42;;;;;;;;;;;;;;;;;;5052759;28;19909;-68
2024/01/17 02:57:08;;;;;;;;;;;;;;;;;;5053028;28;19936;-68
2024/01/17 02:59:36;;;;;;;;;;;;;;;;;;5053144;28;19962;-68
2024/01/17 03:02:02;;;;;;;;;;;;;;;;;;5052702;28;19909;-68
2024/01/17 03:04:28;;;;;;;;;;;;;;;;;;5051836;28;19909;-68
2024/01/17 03:06:54;;;;;;;;;;;;;;;;;;5054838;28;20014;-69
2024/01/17 03:09:20;;;;;;;;;;;;;;;;;;5056337;28;19923;-69
2024/01/17 03:11:46;;;;;;;;;;;;;;;;;;5056770;28;19909;-69
2024/01/17 03:14:12;;;;;;;;;;;;;;;;;;5056598;28;19909;-68
2024/01/17 03:16:38;;;;;;;;;;;;;;;;;;5056601;28;19955;-68
2024/01/17 03:19:04;;;;;;;;;;;;;;;;;;5056783;28;19913;-68
2024/01/17 03:21:30;;;;;;;;;;;;;;;;;;5056437;28;19915;-69
2024/01/17 03:23:58;;;;;;;;;;;;;;;;;;5054703;28;19909;-68
2024/01/17 03:26:24;;;;;;;;;;;;;;;;;;5055078;28;20297;-69
2024/01/17 03:28:50;;;;;;;;;;;;;;;;;;5056391;28;19936;-68
2024/01/17 03:31:16;;;;;;;;;;;;;;;;;;5054672;28;20452;-69
2024/01/17 03:33:41;;;;;;;;;;;;;;;;;;5056276;28;20277;-68
2024/01/17 03:36:07;;;;;;;;;;;;;;;;;;5056159;28;20324;-69
2024/01/17 03:38:33;;;;;;;;;;;;;;;;;;5055773;28;19923;-69
2024/01/17 03:41:01;;;;;;;;;;;;;;;;;;5056091;28;19942;-69
2024/01/17 03:43:26;;;;;;;;;;;;;;;;;;5056629;28;20311;-69
2024/01/17 03:45:54;;;;;;;;;;;;;;;;;;5055560;28;20019;-69
2024/01/17 03:48:20;;;;;;;;;;;;;;;;;;5055927;28;19916;-69
2024/01/17 03:50:46;;;;;;;;;;;;;;;;;;5055542;28;19908;-69
2024/01/17 03:53:12;;;;;;;;;;;;;;;;;;5054679;28;20361;-69
2024/01/17 03:55:38;;;;;;;;;;;;;;;;;;5055654;28;19964;-69
2024/01/17 03:58:06;;;;;;;;;;;;;;;;;;5054888;28;21390;-69
2024/01/17 04:00:31;;;;;;;;;;;;;;;;;;5055728;28;19955;-69
2024/01/17 04:02:57;;;;;;;;;;;;;;;;;;5054447;28;19912;-69
2024/01/17 04:05:23;;;;;;;;;;;;;;;;;;5055476;28;19944;-69
2024/01/17 04:07:50;;;;;;;;;;;;;;;;;;5055546;28;20369;-69
2024/01/17 04:10:16;;;;;;;;;;;;;;;;;;5055835;28;19909;-69
2024/01/17 04:12:42;;;;;;;;;;;;;;;;;;5055357;28;19909;-69
2024/01/17 04:15:07;;;;;;;;;;;;;;;;;;5055679;28;19909;-69
2024/01/17 04:17:35;;;;;;;;;;;;;;;;;;5055974;28;20449;-69
2024/01/17 04:20:01;;;;;;;;;;;;;;;;;;5054958;28;19997;-69
2024/01/17 04:22:27;;;;;;;;;;;;;;;;;;5055342;28;20022;-69
2024/01/17 04:24:53;;;;;;;;;;;;;;;;;;5055284;28;19912;-68
2024/01/17 04:27:19;;;;;;;;;;;;;;;;;;5054780;28;20019;-68
2024/01/17 04:29:45;;;;;;;;;;;;;;;;;;5055109;28;20380;-68
2024/01/17 04:32:11;;;;;;;;;;;;;;;;;;5055543;28;19909;-68
2024/01/17 04:34:37;;;;;;;;;;;;;;;;;;5054698;28;20004;-68
2024/01/17 04:37:03;;;;;;;;;;;;;;;;;;5055055;28;19915;-67
2024/01/17 04:39:29;;;;;;;;;;;;;;;;;;5054957;28;19909;-69
2024/01/17 04:41:56;;;;;;;;;;;;;;;;;;5054574;28;20365;-68
2024/01/17 04:44:22;;;;;;;;;;;;;;;;;;5053661;28;20321;-69
2024/01/17 04:46:48;;;;;;;;;;;;;;;;;;5053453;28;20020;-68
2024/01/17 04:49:14;;;;;;;;;;;;;;;;;;5054511;28;19913;-68
2024/01/17 04:51:41;;;;;;;;;;;;;;;;;;5054702;28;19909;-68
2024/01/17 04:54:07;;;;;;;;;;;;;;;;;;5054444;28;19955;-68
2024/01/17 04:56:33;;;;;;;;;;;;;;;;;;5054449;28;20289;-68
2024/01/17 04:58:59;;;;;;;;;;;;;;;;;;5054605;28;19913;-69
2024/01/17 05:01:25;;;;;;;;;;;;;;;;;;5052920;28;19909;-69
2024/01/17 05:03:51;;;;;;;;;;;;;;;;;;5054537;28;19909;-68
2024/01/17 05:06:17;;;;;;;;;;;;;;;;;;5054414;28;19971;-69
2024/01/17 05:08:43;;;;;;;;;;;;;;;;;;5054097;28;19948;-69
2024/01/17 05:11:09;;;;;;;;;;;;;;;;;;5054355;28;19915;-69
2024/01/17 05:13:35;;;;;;;;;;;;;;;;;;5053193;28;19912;-68
2024/01/17 05:16:01;;;;;;;;;;;;;;;;;;5052593;28;19917;-69
2024/01/17 05:18:27;;;;;;;;;;;;;;;;;;5054378;28;19947;-69
2024/01/17 05:20:53;;;;;;;;;;;;;;;;;;5054263;28;19909;-68
2024/01/17 05:23:19;;;;;;;;;;;;;;;;;;5053868;28;19954;-68
2024/01/17 05:25:45;;;;;;;;;;;;;;;;;;5054063;28;19909;-68
2024/01/17 05:28:11;;;;;;;;;;;;;;;;;;5052876;28;19919;-68
2024/01/17 05:30:37;;;;;;;;;;;;;;;;;;5053256;28;19909;-69
2024/01/17 05:33:03;;;;;;;;;;;;;;;;;;5052842;28;19913;-68
2024/01/17 05:35:29;;;;;;;;;;;;;;;;;;5054152;28;20003;-68
2024/01/17 05:37:55;;;;;;;;;;;;;;;;;;5053632;28;19909;-68
2024/01/17 05:40:21;;;;;;;;;;;;;;;;;;5053876;28;19935;-68
2024/01/17 05:42:47;;;;;;;;;;;;;;;;;;5053952;28;20007;-68
2024/01/17 05:45:13;;;;;;;;;;;;;;;;;;5053444;28;19924;-68
2024/01/17 05:47:39;;;;;;;;;;;;;;;;;;5052462;28;19917;-68
2024/01/17 05:50:08;;;;;;;;;;;;;;;;;;5052487;28;19909;-70
2024/01/17 05:52:35;;;;;;;;;;;;;;;;;;5052383;28;19913;-69
2024/01/17 05:55:00;;;;;;;;;;;;;;;;;;5053668;28;19948;-67
2024/01/17 05:57:26;;;;;;;;;;;;;;;;;;5053534;28;20447;-69
2024/01/17 05:59:52;;;;;;;;;;;;;;;;;;5053724;28;20262;-69
2024/01/17 06:02:18;;;;;;;;;;;;;;;;;;5052402;28;19909;-69
2024/01/17 06:04:44;;;;;;;;;;;;;;;;;;5053331;28;20003;-69
2024/01/17 06:07:10;;;;;;;;;;;;;;;;;;5053550;28;20278;-69
2024/01/17 06:09:36;;;;;;;;;;;;;;;;;;5053616;28;19948;-69
2024/01/17 06:12:02;;;;;;;;;;;;;;;;;;5053142;28;19943;-69
2024/01/17 06:14:28;;;;;;;;;;;;;;;;;;5052322;28;19915;-69
2024/01/17 06:16:54;;;;;;;;;;;;;;;;;;5054135;28;19980;-69
2024/01/17 06:19:20;;;;;;;;;;;;;;;;;;5053132;28;20431;-69
2024/01/17 06:21:46;;;;;;;;;;;;;;;;;;5053469;28;19996;-69
2024/01/17 06:24:12;;;;;;;;;;;;;;;;;;5053649;28;19940;-69
2024/01/17 06:26:38;;;;;;;;;;;;;;;;;;5053106;28;19913;-69
2024/01/17 06:29:04;;;;;;;;;;;;;;;;;;5053462;28;19913;-69
2024/01/17 06:31:30;;;;;;;;;;;;;;;;;;5052221;28;19975;-69
2024/01/17 06:33:56;;;;;;;;;;;;;;;;;;5053072;28;19909;-69
2024/01/17 06:36:23;;;;;;;;;;;;;;;;;;5053417;28;19909;-69
2024/01/17 06:38:49;;;;;;;;;;;;;;;;;;5053412;28;20403;-69
2024/01/17 06:41:15;;;;;;;;;;;;;;;;;;5054006;28;19909;-69
2024/01/17 06:43:41;;;;;;;;;;;;;;;;;;5057223;28;19916;-69
2024/01/17 06:46:07;;;;;;;;;;;;;;;;;;5057121;28;19917;-69
2024/01/17 06:48:33;;;;;;;;;;;;;;;;;;5055477;28;20408;-69
2024/01/17 06:50:59;;;;;;;;;;;;;;;;;;5056930;28;19920;-68
2024/01/17 06:53:25;;;;;;;;;;;;;;;;;;5056914;28;19912;-68
2024/01/17 06:55:51;;;;;;;;;;;;;;;;;;5056377;28;19917;-69
2024/01/17 06:58:16;;;;;;;;;;;;;;;;;;5056895;28;20361;-69
2024/01/17 07:00:43;;;;;;;;;;;;;;;;;;5056510;28;20285;-69
2024/01/17 07:03:09;;;;;;;;;;;;;;;;;;5055516;28;19913;-70
2024/01/17 07:05:36;;;;;;;;;;;;;;;;;;5056749;28;20254;-70
2024/01/17 07:08:02;;;;;;;;;;;;;;;;;;5056307;28;19917;-69
2024/01/17 07:10:28;;;;;;;;;;;;;;;;;;5056607;28;20377;-68
2024/01/17 07:12:54;;;;;;;;;;;;;;;;;;5056638;28;20293;-65
2024/01/17 07:15:20;;;;;;;;;;;;;;;;;;5056075;28;19909;-67
2024/01/17 07:17:46;;;;;;;;;;;;;;;;;;5056464;28;20421;-65
2024/01/17 07:20:12;;;;;;;;;;;;;;;;;;5054548;28;20351;-66
2024/01/17 07:22:41;;;;;;;;;;;;;;;;;;5056078;28;19913;-66
2024/01/17 07:25:07;;;;;;;;;;;;;;;;;;5056470;28;20364;-63
2024/01/17 07:27:33;;;;;;;;;;;;;;;;;;5056099;28;19917;-64
2024/01/17 07:29:59;;;;;;;;;;;;;;;;;;5058770;28;19920;-67
2024/01/17 07:32:25;;;;;;;;;;;;;;;;;;5068247;28;19908;-67
2024/01/17 07:34:51;;;;;;;;;;;;;;;;;;5069287;28;19916;-64
2024/01/17 07:37:17;;;;;;;;;;;;;;;;;;5055745;28;19915;-68
2024/01/17 07:39:43;;;;;;;;;;;;;;;;;;5055618;28;19916;-64
2024/01/17 07:42:09;;;;;;;;;;;;;;;;;;5054509;28;19970;-65
2024/01/17 07:44:35;;;;;;;;;;;;;;;;;;5055293;28;20389;-65
2024/01/17 07:47:01;;;;;;;;;;;;;;;;;;5055456;28;19927;-66
2024/01/17 07:49:27;;;;;;;;;;;;;;;;;;5054825;28;20015;-65
2024/01/17 07:51:53;;;;;;;;;;;;;;;;;;5053603;28;20473;-66
2024/01/17 07:54:19;;;;;;;;;;;;;;;;;;5055211;28;20313;-66
2024/01/17 07:56:45;;;;;;;;;;;;;;;;;;5055230;28;19968;-66
2024/01/17 07:59:15;;;;;;;;;;;;;;;;;;5054522;28;19916;-67
2024/01/17 08:01:41;;;;;;;;;;;;;;;;;;5049429;28;19917;-66
2024/01/17 08:04:06;;;;;;;;;;;;;;;;;;5053567;28;19913;-66
2024/01/17 08:06:33;;;;;;;;;;;;;;;;;;5054906;28;19943;-66
2024/01/17 08:08:59;;;;;;;;;;;;;;;;;;5053362;28;19975;-65
2024/01/17 08:11:25;;;;;;;;;;;;;;;;;;5054534;28;19909;-65
2024/01/17 08:13:51;;;;;;;;;;;;;;;;;;5056976;28;20439;-66
2024/01/17 08:16:17;;;;;;;;;;;;;;;;;;5055113;28;20051;-65
2024/01/17 08:18:43;;;;;;;;;;;;;;;;;;5054189;28;19920;-67
2024/01/17 08:21:09;;;;;;;;;;;;;;;;;;5052882;28;19909;-66
2024/01/17 08:23:36;;;;;;;;;;;;;;;;;;5051397;28;19909;-65
2024/01/17 08:26:02;;;;;;;;;;;;;;;;;;5050620;28;19965;-65
2024/01/17 08:28:28;;;;;;;;;;;;;;;;;;5052724;28;19909;-66
2024/01/17 08:30:54;;;;;;;;;;;;;;;;;;5051109;28;20022;-65
2024/01/17 08:33:20;;;;;;;;;;;;;;;;;;5051845;28;19912;-65
2024/01/17 08:35:47;;;;;;;;;;;;;;;;;;5053895;28;19923;-68
2024/01/17 08:38:13;;;;;;;;;;;;;;;;;;5054606;28;20385;-68
2024/01/17 08:40:39;;;;;;;;;;;;;;;;;;5053623;28;20443;-66
2024/01/17 08:43:05;;;;;;;;;;;;;;;;;;5053625;28;19909;-66
2024/01/17 08:45:31;;;;;;;;;;;;;;;;;;5053647;28;19915;-66
2024/01/17 08:47:57;;;;;;;;;;;;;;;;;;5053745;28;19921;-66
2024/01/17 08:50:23;;;;;;;;;;;;;;;;;;5052508;28;20365;-66
2024/01/17 08:52:49;;;;;;;;;;;;;;;;;;5053598;28;20505;-67
2024/01/17 08:55:15;;;;;;;;;;;;;;;;;;5051912;28;19929;-65
2024/01/17 08:57:41;;;;;;;;;;;;;;;;;;5052218;28;19928;-66
2024/01/17 09:00:07;;;;;;;;;;;;;;;;;;5052074;28;19913;-65
2024/01/17 09:02:33;;;;;;;;;;;;;;;;;;5053931;28;19909;-66
2024/01/17 09:05:00;;;;;;;;;;;;;;;;;;5049670;28;19937;-66
2024/01/17 09:07:26;;;;;;;;;;;;;;;;;;5054072;28;20385;-66
2024/01/17 09:09:52;;;;;;;;;;;;;;;;;;5041272;28;19952;-66
2024/01/17 09:12:19;;;;;;;;;;;;;;;;;;5051000;28;20349;-66
2024/01/17 09:14:45;;;;;;;;;;;;;;;;;;5051820;28;19916;-66
2024/01/17 09:17:11;;;;;;;;;;;;;;;;;;5046999;28;19912;-66
2024/01/17 09:19:37;;;;;;;;;;;;;;;;;;5049304;28;19909;-65
2024/01/17 09:22:03;;;;;;;;;;;;;;;;;;5041479;28;19909;-66
2024/01/17 09:24:30;;;;;;;;;;;;;;;;;;5050408;28;19919;-65
2024/01/17 09:26:56;;;;;;;;;;;;;;;;;;5044344;28;19983;-68
2024/01/17 09:29:21;;;;;;;;;;;;;;;;;;5049323;28;19994;-66
2024/01/17 09:31:47;;;;;;;;;;;;;;;;;;5047907;28;19909;-67
2024/01/17 09:34:13;;;;;;;;;;;;;;;;;;5052897;28;19966;-68
2024/01/17 09:36:39;;;;;;;;;;;;;;;;;;5048749;28;20361;-66
2024/01/17 09:39:05;;;;;;;;;;;;;;;;;;5049024;28;20399;-67
2024/01/17 09:41:31;;;;;;;;;;;;;;;;;;5052433;28;19983;-67
2024/01/17 09:43:57;;;;;;;;;;;;;;;;;;5050834;28;19921;-67
2024/01/17 09:46:23;;;;;;;;;;;;;;;;;;5051211;28;19971;-65
2024/01/17 09:48:50;;;;;;;;;;;;;;;;;;5052594;28;19916;-66
2024/01/17 09:51:18;;;;;;;;;;;;;;;;;;5048677;28;19915;-67
2024/01/17 09:53:45;;;;;;;;;;;;;;;;;;5047759;28;19920;-66
2024/01/17 09:56:11;;;;;;;;;;;;;;;;;;5049576;28;19920;-66
2024/01/17 09:58:37;;;;;;;;;;;;;;;;;;5049385;28;19913;-67
2024/01/17 10:01:04;;;;;;;;;;;;;;;;;;5051236;28;19946;-67
2024/01/17 10:03:30;;;;;;;;;;;;;;;;;;5051011;28;19912;-66
2024/01/17 10:05:56;;;;;;;;;;;;;;;;;;5049850;28;20471;-66
2024/01/17 10:08:22;;;;;;;;;;;;;;;;;;5050020;28;19949;-66
2024/01/17 10:10:48;;;;;;;;;;;;;;;;;;5051817;28;19969;-65
2024/01/17 10:13:14;;;;;;;;;;;;;;;;;;5049728;28;19912;-67
2024/01/17 10:15:40;;;;;;;;;;;;;;;;;;5052266;28;19908;-65
2024/01/17 10:18:06;;;;;;;;;;;;;;;;;;5055528;28;20082;-67
2024/01/17 10:20:32;;;;;;;;;;;;;;;;;;5055575;28;19913;-68
2024/01/17 10:22:58;;;;;;;;;;;;;;;;;;5054478;28;20015;-68
2024/01/17 10:25:24;;;;;;;;;;;;;;;;;;5054732;28;19939;-68
2024/01/17 10:27:50;;;;;;;;;;;;;;;;;;5054736;28;19917;-67
2024/01/17 10:30:16;;;;;;;;;;;;;;;;;;5055105;28;20004;-67
2024/01/17 10:32:42;;;;;;;;;;;;;;;;;;5052491;28;19909;-67
2024/01/17 10:35:08;;;;;;;;;;;;;;;;;;5053857;28;19996;-67
2024/01/17 10:37:34;;;;;;;;;;;;;;;;;;5054405;28;19924;-68
2024/01/17 10:40:00;;;;;;;;;;;;;;;;;;5054295;28;19999;-67
2024/01/17 10:42:25;;;;;;;;;;;;;;;;;;5054489;28;19966;-68
2024/01/17 10:44:51;;;;;;;;;;;;;;;;;;5055350;28;19909;-69
2024/01/17 10:47:17;;;;;;;;;;;;;;;;;;5055987;28;19962;-68
2024/01/17 10:49:44;;;;;;;;;;;;;;;;;;5055019;28;19971;-68
2024/01/17 10:52:11;;;;;;;;;;;;;;;;;;5056432;28;19913;-68
2024/01/17 10:54:37;;;;;;;;;;;;;;;;;;5055877;28;19909;-68
2024/01/17 10:57:06;;;;;;;;;;;;;;;;;;5050274;28;19971;-67
2024/01/17 10:59:33;;;;;;;;;;;;;;;;;;5054319;28;20350;-68
2024/01/17 11:01:59;;;;;;;;;;;;;;;;;;5055891;28;19967;-68
2024/01/17 11:04:25;;;;;;;;;;;;;;;;;;5056032;28;20004;-68
2024/01/17 11:06:51;;;;;;;;;;;;;;;;;;5055864;28;19924;-67
2024/01/17 11:09:18;;;;;;;;;;;;;;;;;;5056052;28;20392;-67
2024/01/17 11:11:46;;;;;;;;;;;;;;;;;;5056100;28;19955;-67
2024/01/17 11:14:12;;;;;;;;;;;;;;;;;;5054216;28;19935;-67
2024/01/17 11:16:39;;;;;;;;;;;;;;;;;;5054889;28;19954;-67
2024/01/17 11:19:04;;;;;;;;;;;;;;;;;;5050590;28;19982;-67
2024/01/17 11:21:30;;;;;;;;;;;;;;;;;;5055552;28;20361;-67
2024/01/17 11:23:58;;;;;;;;;;;;;;;;;;5055772;28;19995;-68
2024/01/17 11:29:31;;;;;;;;;;;;;;;;;;5089862;27;20279;-67
2024/01/17 11:31:57;;;;;;;;;;;;;;;;;;5089204;28;20003;-67
2024/01/17 11:34:23;;;;;;;;;;;;;;;;;;5088824;28;19912;-67
2024/01/17 11:37:34;;;;;;;;;;;;;;;;;;5090470;27;20308;-67
2024/01/17 11:39:59;;;;;;;;;;;;;;;;;;5090509;28;19951;-68
2024/01/17 11:42:25;;;;;;;;;;;;;;;;;;5088798;28;19955;-68
2024/01/17 11:45:20;;;;;;;;;;;;;;;;;;5090441;27;19921;-67
2024/01/17 11:49:31;;;;;;;;;;;;;;;;;;5090035;27;20305;-69
2024/01/17 11:53:46;;;;;;;;;;;;;;;;;;5090542;27;20307;-67
2024/01/17 11:58:15;;;;;;;;;;;;;;;;;;5089497;28;19912;-67
2024/01/17 12:00:41;;;;;;;;;;;;;;;;;;5088534;28;19916;-67
2024/01/17 12:03:07;;;;;;;;;;;;;;;;;;5089671;28;19909;-66
2024/01/17 12:05:46;;;;;;;;;;;;;;;;;;5089983;27;20015;-67
2024/01/17 12:08:40;;;;;;;;;;;;;;;;;;5089299;27;19926;-68
2024/01/17 12:11:06;;;;;;;;;;;;;;;;;;5089986;28;19912;-68
2024/01/17 12:13:32;;;;;;;;;;;;;;;;;;5089629;28;19909;-68
2024/01/17 12:17:17;;;;;;;;;;;;;;;;;;5090150;27;19912;-67
2024/01/17 12:19:43;;;;;;;;;;;;;;;;;;5090531;28;20349;-67
2024/01/17 12:22:09;;;;;;;;;;;;;;;;;;5090548;28;19908;-68
2024/01/17 12:26:41;;;;;;;;;;;;;;;;;;5090619;27;19916;-69
2024/01/17 12:29:07;;;;;;;;;;;;;;;;;;5087712;28;19912;-68
2024/01/17 12:31:33;;;;;;;;;;;;;;;;;;5088455;28;19912;-69
2024/01/17 12:33:59;;;;;;;;;;;;;;;;;;5089138;28;19955;-68
2024/01/17 12:36:25;;;;;;;;;;;;;;;;;;5089659;28;19947;-69
2024/01/17 12:41:33;;;;;;;;;;;;;;;;;;5089917;27;19917;-67
2024/01/17 12:43:59;;;;;;;;;;;;;;;;;;5089776;28;19918;-67
2024/01/17 12:46:25;;;;;;;;;;;;;;;;;;5090712;28;19916;-67
2024/01/17 12:49:49;;;;;;;;;;;;;;;;;;5091767;27;19923;-67
2024/01/17 12:52:17;;;;;;;;;;;;;;;;;;5090881;28;19920;-69
2024/01/17 12:54:43;;;;;;;;;;;;;;;;;;5091268;28;19915;-68
2024/01/17 13:01:32;;;;;;;;;;;;;;;;;;5090466;27;19918;-68
2024/01/17 13:06:24;;;;;;;;;;;;;;;;;;5172457;27;20001;-67
2024/01/17 13:08:50;;;;;;;;;;;;;;;;;;5173740;27;19946;-68
2024/01/17 13:11:17;;;;;;;;;;;;;;;;;;5173364;27;19914;-68
2024/01/17 13:14:53;;;;;;;;;;;;;;;;;;5090891;27;20297;-67
2024/01/17 13:17:19;;;;;;;;;;;;;;;;;;5091052;28;19955;-69
2024/01/17 13:19:45;;;;;;;;;;;;;;;;;;5091201;28;19908;-68
2024/01/17 13:22:37;;;;;;;;;;;;;;;;;;5090663;27;20268;-67
2024/01/17 13:25:03;;;;;;;;;;;;;;;;;;5089731;28;19918;-68
2024/01/17 13:27:29;;;;;;;;;;;;;;;;;;5087453;28;19909;-68
2024/01/17 13:31:06;;;;;;;;;;;;;;;;;;5089281;27;19944;-68
2024/01/17 13:33:32;;;;;;;;;;;;;;;;;;5089328;28;19912;-68
2024/01/17 13:35:58;;;;;;;;;;;;;;;;;;5088818;28;20337;-67
2024/01/17 13:38:28;;;;;;;;;;;;;;;;;;5089120;28;19955;-68
2024/01/17 13:40:54;;;;;;;;;;;;;;;;;;5091066;28;19985;-68
2024/01/17 13:43:20;;;;;;;;;;;;;;;;;;5090951;28;20365;-68
2024/01/17 13:45:46;;;;;;;;;;;;;;;;;;5091540;28;19908;-68
2024/01/17 13:48:12;;;;;;;;;;;;;;;;;;5091166;28;20357;-68
2024/01/17 13:50:38;;;;;;;;;;;;;;;;;;5089246;28;19952;-68
2024/01/17 13:53:17;;;;;;;;;;;;;;;;;;5090088;28;19908;-68
2024/01/17 13:55:43;;;;;;;;;;;;;;;;;;5090785;28;19916;-68
2024/01/17 13:58:09;;;;;;;;;;;;;;;;;;5090845;28;20276;-68
2024/01/17 14:00:38;;;;;;;;;;;;;;;;;;5090817;28;19908;-68
2024/01/17 14:03:04;;;;;;;;;;;;;;;;;;5090438;28;20379;-68
2024/01/17 14:05:30;;;;;;;;;;;;;;;;;;5090758;28;19950;-68
2024/01/17 14:07:57;;;;;;;;;;;;;;;;;;5089452;28;19913;-68
2024/01/17 14:10:23;;;;;;;;;;;;;;;;;;5090190;28;19921;-68
2024/01/17 14:12:49;;;;;;;;;;;;;;;;;;5089317;28;19915;-68
2024/01/17 14:15:16;;;;;;;;;;;;;;;;;;5090526;28;19912;-68
2024/01/17 14:17:42;;;;;;;;;;;;;;;;;;5088784;28;19909;-68
2024/01/17 14:20:16;;;;;;;;;;;;;;;;;;5089184;28;19916;-68
2024/01/17 14:22:42;;;;;;;;;;;;;;;;;;5090394;28;19962;-68
2024/01/17 14:25:12;;;;;;;;;;;;;;;;;;5090030;28;19909;-68
2024/01/17 14:27:38;;;;;;;;;;;;;;;;;;5090312;28;20000;-68
2024/01/17 14:30:04;;;;;;;;;;;;;;;;;;5102169;28;20023;-69
2024/01/17 14:32:31;;;;;;;;;;;;;;;;;;5110084;28;19908;-68
2024/01/17 14:34:57;;;;;;;;;;;;;;;;;;5092286;28;19908;-67
2024/01/17 14:37:23;;;;;;;;;;;;;;;;;;5092122;28;20330;-69
2024/01/17 14:39:49;;;;;;;;;;;;;;;;;;5110470;28;19966;-69
2024/01/17 14:42:23;;;;;;;;;;;;;;;;;;5079860;28;19912;-69
2024/01/17 14:44:49;;;;;;;;;;;;;;;;;;5097424;28;19916;-68
2024/01/17 14:47:14;;;;;;;;;;;;;;;;;;5096687;28;20261;-69
2024/01/17 14:49:40;;;;;;;;;;;;;;;;;;5096631;28;19916;-69
2024/01/17 14:52:07;;;;;;;;;;;;;;;;;;5096224;28;20351;-68
2024/01/17 14:54:33;;;;;;;;;;;;;;;;;;5096383;28;19954;-67
2024/01/17 14:57:00;;;;;;;;;;;;;;;;;;5096719;28;19908;-68
2024/01/17 14:59:26;;;;;;;;;;;;;;;;;;5096106;28;19934;-68
2024/01/17 15:01:52;;;;;;;;;;;;;;;;;;5096576;28;19912;-68
2024/01/17 15:04:18;;;;;;;;;;;;;;;;;;5096419;28;19908;-68
2024/01/17 15:06:44;;;;;;;;;;;;;;;;;;5077693;28;19912;-68
2024/01/17 15:09:16;;;;;;;;;;;;;;;;;;5078114;28;20368;-68
2024/01/17 15:11:42;;;;;;;;;;;;;;;;;;5096090;28;19919;-68
2024/01/17 15:14:08;;;;;;;;;;;;;;;;;;5095764;28;19909;-68
2024/01/17 15:16:35;;;;;;;;;;;;;;;;;;5077962;28;20284;-67
2024/01/17 15:19:01;;;;;;;;;;;;;;;;;;5077954;28;19912;-68
2024/01/17 15:21:27;;;;;;;;;;;;;;;;;;5077433;28;20405;-68
2024/01/17 15:23:53;;;;;;;;;;;;;;;;;;5096053;28;20369;-68
2024/01/17 15:26:19;;;;;;;;;;;;;;;;;;5095968;28;20365;-68
2024/01/17 15:28:45;;;;;;;;;;;;;;;;;;5077098;28;19915;-68
2024/01/17 15:31:11;;;;;;;;;;;;;;;;;;5077705;28;20292;-68
2024/01/17 15:33:37;;;;;;;;;;;;;;;;;;5077638;28;19908;-68
2024/01/17 15:36:05;;;;;;;;;;;;;;;;;;5095399;28;19908;-68
2024/01/17 15:38:32;;;;;;;;;;;;;;;;;;5095789;28;19908;-68
2024/01/17 15:41:05;;;;;;;;;;;;;;;;;;5077601;28;20307;-67
2024/01/17 15:43:34;;;;;;;;;;;;;;;;;;5095289;28;20280;-68
2024/01/17 15:46:00;;;;;;;;;;;;;;;;;;5093974;28;19931;-68
2024/01/17 15:48:26;;;;;;;;;;;;;;;;;;5095343;28;20322;-68
2024/01/17 15:50:52;;;;;;;;;;;;;;;;;;5094160;28;19916;-68
2024/01/17 15:53:18;;;;;;;;;;;;;;;;;;5092349;28;20412;-68
2024/01/17 15:55:44;;;;;;;;;;;;;;;;;;5094236;28;20356;-67
2024/01/17 15:58:13;;;;;;;;;;;;;;;;;;5077243;28;20322;-67
2024/01/17 16:00:40;;;;;;;;;;;;;;;;;;5094988;28;19919;-69
2024/01/17 16:03:06;;;;;;;;;;;;;;;;;;5092816;28;19908;-69
2024/01/17 16:05:32;;;;;;;;;;;;;;;;;;5074810;28;19930;-69
2024/01/17 16:08:00;;;;;;;;;;;;;;;;;;5092920;28;19908;-69
2024/01/17 16:10:26;;;;;;;;;;;;;;;;;;5074454;28;19916;-69
2024/01/17 16:12:53;;;;;;;;;;;;;;;;;;5092730;28;19916;-68
2024/01/17 16:15:19;;;;;;;;;;;;;;;;;;5092829;28;19908;-67
2024/01/17 16:17:45;;;;;;;;;;;;;;;;;;5074251;28;19908;-69
2024/01/17 16:20:11;;;;;;;;;;;;;;;;;;5094762;28;19908;-69
2024/01/17 16:22:37;;;;;;;;;;;;;;;;;;5094807;28;20372;-68
2024/01/17 16:25:05;;;;;;;;;;;;;;;;;;5094246;28;19908;-68
2024/01/17 16:27:31;;;;;;;;;;;;;;;;;;5094920;28;19908;-69
2024/01/17 16:29:57;;;;;;;;;;;;;;;;;;5076065;28;19973;-69
2024/01/17 16:32:23;;;;;;;;;;;;;;;;;;5094001;28;19915;-68
2024/01/17 16:34:49;;;;;;;;;;;;;;;;;;5094700;28;19908;-68
2024/01/17 16:37:15;;;;;;;;;;;;;;;;;;5094516;28;19963;-68
2024/01/17 16:39:41;;;;;;;;;;;;;;;;;;5094094;28;19915;-69
2024/01/17 16:42:07;;;;;;;;;;;;;;;;;;5094816;28;19943;-69
2024/01/17 16:44:33;;;;;;;;;;;;;;;;;;5093957;28;19908;-69
2024/01/17 16:47:02;;;;;;;;;;;;;;;;;;5093141;28;19916;-68
2024/01/17 16:49:29;;;;;;;;;;;;;;;;;;5094200;28;19916;-68
2024/01/17 16:51:55;;;;;;;;;;;;;;;;;;5091951;28;20391;-68
2024/01/17 16:54:21;;;;;;;;;;;;;;;;;;5084754;28;19912;-68
2024/01/17 16:56:47;;;;;;;;;;;;;;;;;;5079932;28;19920;-67
2024/01/17 16:59:15;;;;;;;;;;;;;;;;;;5091503;28;19915;-67
2024/01/17 17:01:41;;;;;;;;;;;;;;;;;;5090742;28;20238;-67
2024/01/17 17:04:08;;;;;;;;;;;;;;;;;;5089845;28;19958;-68
2024/01/17 17:06:34;;;;;;;;;;;;;;;;;;5088673;28;19955;-69